Time;durP1;ratioP1;P1;durP2;ratioP2;P2;SDS_P1;SDS_P2;PMS_P1;PMS_P2;Temp;Humidity;BMP_temperature;BMP_pressure;BME280_temperature;BME280_humidity;BME280_pressure;Samples;Min_cycle;Max_cycle;Signal;HPM_P1;HPM_P2
2023/07/13 00:02:04;;;;;;;3.33;1.60;;;;;;;18.92;89.21;100006.66;4997424;28;20228;-63
2023/07/13 00:04:29;;;;;;;2.80;1.47;;;;;;;18.87;88.90;100009.66;4991731;28;20195;-63
2023/07/13 00:06:55;;;;;;;2.77;1.40;;;;;;;18.86;90.00;100006.22;4991151;28;20183;-63
2023/07/13 00:09:21;;;;;;;2.27;1.43;;;;;;;18.86;89.71;100001.00;4992339;28;20194;-64
2023/07/13 00:11:51;;;;;;;2.63;1.73;;;;;;;18.73;90.74;100008.31;4983945;28;20717;-64
2023/07/13 00:14:17;;;;;;;4.10;2.10;;;;;;;18.75;90.42;100000.34;5006135;28;20206;-64
2023/07/13 00:16:43;;;;;;;2.80;1.60;;;;;;;18.62;91.17;100013.66;4993114;28;20643;-64
2023/07/13 00:19:10;;;;;;;2.90;1.77;;;;;;;18.62;90.72;100009.28;4992596;28;20211;-64
2023/07/13 00:21:35;;;;;;;2.67;1.60;;;;;;;18.60;90.62;100016.41;4984155;28;20230;-63
2023/07/13 00:24:01;;;;;;;3.47;1.70;;;;;;;18.66;90.39;100017.63;4995095;28;20271;-66
2023/07/13 00:26:26;;;;;;;2.70;1.50;;;;;;;18.62;90.23;100019.69;4991790;28;20183;-63
2023/07/13 00:28:52;;;;;;;2.67;1.50;;;;;;;18.52;91.81;100014.47;4992148;28;20234;-63
2023/07/13 00:31:17;;;;;;;7.40;1.60;;;;;;;18.52;91.59;100022.28;4992272;28;20233;-63
2023/07/13 00:33:43;;;;;;;4.53;1.70;;;;;;;18.51;91.48;100014.63;4998766;28;20190;-63
2023/07/13 00:36:09;;;;;;;3.90;1.53;;;;;;;18.36;92.29;100016.81;4991147;28;20266;-63
2023/07/13 00:38:35;;;;;;;1.97;1.70;;;;;;;18.36;93.29;100022.84;4991049;28;20223;-63
2023/07/13 00:41:03;;;;;;;6.20;1.70;;;;;;;18.26;97.28;100026.38;4988590;28;20710;-65
2023/07/13 00:43:29;;;;;;;6.50;1.60;;;;;;;18.17;95.95;100028.03;4990020;28;20203;-63
2023/07/13 00:45:57;;;;;;;4.70;1.50;;;;;;;18.00;96.30;100039.94;4991651;28;20183;-63
2023/07/13 00:48:27;;;;;;;3.63;1.60;;;;;;;17.89;97.84;100038.22;4991629;28;20176;-62
2023/07/13 00:50:55;;;;;;;2.13;1.43;;;;;;;17.80;99.77;100036.38;4982694;28;20241;-63
2023/07/13 00:53:21;;;;;;;5.10;2.27;;;;;;;17.69;100.00;100034.72;4990398;28;20195;-61
2023/07/13 00:55:49;;;;;;;4.10;1.60;;;;;;;17.56;100.00;100038.38;4990620;28;20195;-62
2023/07/13 00:58:15;;;;;;;2.63;1.53;;;;;;;17.58;100.00;100041.66;4991278;28;20257;-62
2023/07/13 01:00:41;;;;;;;3.67;1.37;;;;;;;17.53;100.00;100038.63;4987189;28;20685;-62
2023/07/13 01:03:07;;;;;;;4.40;1.77;;;;;;;17.41;100.00;100029.25;5001789;28;20184;-62
2023/07/13 01:05:34;;;;;;;2.60;1.37;;;;;;;17.33;100.00;100036.88;4999104;28;20187;-62
2023/07/13 01:08:01;;;;;;;4.60;1.77;;;;;;;17.21;100.00;100043.94;4994062;28;20198;-62
2023/07/13 01:10:26;;;;;;;4.33;1.80;;;;;;;17.13;100.00;100043.75;4983389;28;20262;-63
2023/07/13 01:12:53;;;;;;;3.90;1.63;;;;;;;17.04;100.00;100037.53;5006773;28;20655;-63
2023/07/13 01:15:38;;;;;;;2.83;1.73;;;;;;;16.88;100.00;100036.19;4994138;28;20191;-62
2023/07/13 01:18:13;;;;;;;3.50;1.80;;;;;;;16.81;100.00;100045.44;4994488;28;20649;-62
2023/07/13 01:20:39;;;;;;;3.37;1.57;;;;;;;16.93;100.00;100043.63;4987518;28;20237;-64
2023/07/13 01:23:10;;;;;;;3.30;1.73;;;;;;;16.84;100.00;100039.16;4994236;28;20623;-63
2023/07/13 01:25:37;;;;;;;3.30;1.80;;;;;;;16.83;100.00;100035.75;4993602;28;20180;-62
2023/07/13 01:28:05;;;;;;;4.77;1.60;;;;;;;16.61;100.00;100040.09;4994800;28;20219;-63
2023/07/13 01:30:31;;;;;;;2.37;1.70;;;;;;;16.71;100.00;100032.38;4987411;28;20233;-63
2023/07/13 01:32:57;;;;;;;6.10;2.33;;;;;;;16.68;100.00;100043.00;5007350;28;20175;-63
2023/07/13 01:35:22;;;;;;;5.53;1.63;;;;;;;16.71;100.00;100041.94;4995367;28;20203;-63
2023/07/13 01:37:47;;;;;;;2.77;1.97;;;;;;;16.69;100.00;100043.84;4993830;28;20199;-62
2023/07/13 01:40:13;;;;;;;3.70;1.60;;;;;;;16.62;100.00;100049.53;4986722;28;20186;-63
2023/07/13 01:42:38;;;;;;;4.33;1.60;;;;;;;16.55;100.00;100050.97;5007835;28;20179;-62
2023/07/13 01:45:04;;;;;;;3.70;1.50;;;;;;;16.55;100.00;100040.56;4994554;28;20265;-63
2023/07/13 01:47:30;;;;;;;3.00;1.70;;;;;;;16.58;100.00;100045.53;4993719;28;20175;-62
2023/07/13 01:49:56;;;;;;;2.43;1.43;;;;;;;16.56;100.00;100046.59;4993432;28;20192;-63
2023/07/13 01:52:21;;;;;;;2.27;2.03;;;;;;;16.48;100.00;100039.41;4984513;28;20225;-63
2023/07/13 01:54:47;;;;;;;2.00;1.23;;;;;;;16.44;100.00;100048.41;4994592;28;20203;-62
2023/07/13 01:57:12;;;;;;;3.43;1.50;;;;;;;16.32;100.00;100050.19;4992932;28;20228;-63
2023/07/13 01:59:37;;;;;;;3.03;1.57;;;;;;;16.30;100.00;100034.75;4995449;28;20661;-62
2023/07/13 02:02:03;;;;;;;3.20;1.40;;;;;;;16.32;100.00;100049.38;4986706;28;20256;-63
2023/07/13 02:04:28;;;;;;;1.77;1.63;;;;;;;16.25;100.00;100049.06;4993372;28;20315;-65
2023/07/13 02:06:55;;;;;;;2.83;1.47;;;;;;;16.19;100.00;100055.56;4994266;28;20183;-62
2023/07/13 02:09:20;;;;;;;4.60;1.53;;;;;;;16.19;100.00;100058.16;4994578;28;20188;-62
2023/07/13 02:11:46;;;;;;;2.27;1.13;;;;;;;16.13;100.00;100054.25;4997695;28;20645;-63
2023/07/13 02:14:11;;;;;;;3.33;1.63;;;;;;;16.12;100.00;100057.81;5008767;28;20209;-63
2023/07/13 02:16:36;;;;;;;3.93;1.63;;;;;;;16.16;100.00;100054.97;5013452;28;20202;-63
2023/07/13 02:19:02;;;;;;;3.60;1.47;;;;;;;16.04;100.00;100054.16;5013023;28;20273;-62
2023/07/13 02:21:27;;;;;;;2.60;1.50;;;;;;;15.99;100.00;100057.13;5014070;28;20755;-62
2023/07/13 02:23:53;;;;;;;3.13;1.70;;;;;;;15.94;100.00;100060.06;5016853;28;20193;-63
2023/07/13 02:26:18;;;;;;;3.20;1.60;;;;;;;15.93;100.00;100061.00;5010835;28;20213;-62
2023/07/13 02:28:44;;;;;;;2.67;1.57;;;;;;;15.81;100.00;100055.00;5012701;28;20261;-62
2023/07/13 02:31:12;;;;;;;2.87;1.63;;;;;;;15.82;100.00;100068.78;4986173;28;20291;-62
2023/07/13 02:33:37;;;;;;;2.13;1.50;;;;;;;15.86;100.00;100056.41;5010267;28;20194;-61
2023/07/13 02:36:03;;;;;;;3.20;1.40;;;;;;;15.77;100.00;100052.75;5009836;28;20556;-62
2023/07/13 02:38:29;;;;;;;2.83;1.50;;;;;;;15.71;100.00;100054.03;5008776;28;20198;-62
2023/07/13 02:40:54;;;;;;;2.47;1.70;;;;;;;15.67;100.00;100060.41;5007673;28;20221;-61
2023/07/13 02:43:19;;;;;;;3.63;1.87;;;;;;;15.64;100.00;100053.69;5020252;28;20209;-61
2023/07/13 02:45:45;;;;;;;2.53;1.40;;;;;;;15.54;100.00;100059.69;5008587;28;20185;-62
2023/07/13 02:48:14;;;;;;;2.60;1.60;;;;;;;15.55;100.00;100063.94;5009826;28;20260;-64
2023/07/13 02:50:39;;;;;;;4.30;2.00;;;;;;;15.48;100.00;100068.75;5002116;28;20710;-62
2023/07/13 02:53:04;;;;;;;2.90;1.63;;;;;;;15.22;100.00;100055.16;5021522;28;20265;-62
2023/07/13 02:55:29;;;;;;;3.67;1.33;;;;;;;15.15;100.00;100055.59;5009650;28;20218;-62
2023/07/13 02:57:55;;;;;;;1.80;1.40;;;;;;;15.27;100.00;100058.22;5010442;28;20201;-61
2023/07/13 03:00:20;;;;;;;2.70;1.83;;;;;;;15.32;100.00;100061.31;4990221;28;20189;-61
2023/07/13 03:02:45;;;;;;;4.57;1.70;;;;;;;15.29;100.00;100062.38;4998044;28;20210;-62
2023/07/13 03:05:12;;;;;;;1.90;1.70;;;;;;;15.20;100.00;100063.06;4988077;28;20214;-61
2023/07/13 03:07:38;;;;;;;4.00;1.80;;;;;;;15.16;100.00;100064.22;5005069;28;20320;-62
2023/07/13 03:10:04;;;;;;;4.77;1.80;;;;;;;15.12;100.00;100062.78;4997603;28;20261;-62
2023/07/13 03:12:29;;;;;;;3.10;1.50;;;;;;;15.13;100.00;100067.03;4991673;28;20635;-62
2023/07/13 03:14:54;;;;;;;5.60;1.73;;;;;;;15.08;100.00;100067.41;4992705;28;20187;-62
2023/07/13 03:17:20;;;;;;;2.13;1.60;;;;;;;15.03;100.00;100072.06;4998443;28;20218;-62
2023/07/13 03:19:49;;;;;;;3.87;1.40;;;;;;;14.94;100.00;100078.75;5010843;28;21063;-61
2023/07/13 03:22:14;;;;;;;2.77;1.80;;;;;;;15.00;100.00;100074.91;5002327;28;20628;-62
2023/07/13 03:24:39;;;;;;;3.73;1.50;;;;;;;14.98;100.00;100087.97;5010655;28;20179;-61
2023/07/13 03:27:05;;;;;;;2.80;1.50;;;;;;;15.00;100.00;100074.91;5012748;28;20240;-62
2023/07/13 03:29:31;;;;;;;6.30;1.93;;;;;;;14.93;100.00;100089.22;4999415;28;20270;-63
2023/07/13 03:31:56;;;;;;;3.37;1.30;;;;;;;14.95;100.00;100083.00;4997072;28;20246;-63
2023/07/13 03:34:21;;;;;;;3.40;1.60;;;;;;;14.99;100.00;100092.19;5012825;28;20210;-62
2023/07/13 03:36:47;;;;;;;2.53;1.47;;;;;;;14.99;100.00;100094.78;5011409;28;20615;-63
2023/07/13 03:39:12;;;;;;;3.63;1.60;;;;;;;14.97;100.00;100088.06;4992783;28;20230;-63
2023/07/13 03:41:37;;;;;;;2.63;1.47;;;;;;;14.93;100.00;100097.81;4982371;28;20231;-63
2023/07/13 03:44:03;;;;;;;5.57;1.63;;;;;;;15.06;100.00;100100.34;4981997;28;20184;-63
2023/07/13 03:46:28;;;;;;;2.07;1.37;;;;;;;15.12;100.00;100110.25;4992480;28;20187;-63
2023/07/13 03:48:53;;;;;;;5.67;1.83;;;;;;;15.12;100.00;100109.41;4992734;28;20183;-61
2023/07/13 03:51:19;;;;;;;3.90;1.50;;;;;;;15.13;100.00;100100.72;4984616;28;20602;-62
2023/07/13 03:53:45;;;;;;;3.20;1.50;;;;;;;15.16;100.00;100108.28;5003624;28;20221;-62
2023/07/13 03:56:14;;;;;;;4.13;1.47;;;;;;;15.15;100.00;100114.38;5009952;28;20266;-63
2023/07/13 03:58:40;;;;;;;3.23;1.40;;;;;;;15.24;100.00;100105.91;5011028;28;20190;-62
2023/07/13 04:01:08;;;;;;;2.53;1.50;;;;;;;15.27;100.00;100104.88;5002337;28;20766;-63
2023/07/13 04:03:34;;;;;;;3.13;1.60;;;;;;;15.34;100.00;100108.66;4997299;28;20182;-62
2023/07/13 04:06:01;;;;;;;3.03;1.60;;;;;;;15.38;100.00;100114.44;5011498;28;20549;-62
2023/07/13 04:08:28;;;;;;;2.10;1.40;;;;;;;15.46;100.00;100114.72;5009633;28;20189;-64
2023/07/13 04:10:54;;;;;;;3.33;1.70;;;;;;;15.47;100.00;100117.19;5003702;28;20268;-62
2023/07/13 04:13:19;;;;;;;4.00;1.57;;;;;;;15.40;100.00;100107.38;5010027;28;20179;-63
2023/07/13 04:15:45;;;;;;;3.73;1.67;;;;;;;15.43;100.00;100115.75;5011351;28;20216;-62
2023/07/13 04:18:10;;;;;;;3.93;1.50;;;;;;;15.53;100.00;100113.31;4992297;28;20294;-62
2023/07/13 04:20:35;;;;;;;4.17;1.73;;;;;;;15.55;100.00;100110.59;4983875;28;20701;-62
2023/07/13 04:23:00;;;;;;;3.27;1.53;;;;;;;15.62;100.00;100116.97;4990387;28;20270;-62
2023/07/13 04:25:26;;;;;;;4.40;1.53;;;;;;;15.86;100.00;100123.84;4990532;28;20262;-63
2023/07/13 04:27:53;;;;;;;3.93;1.63;;;;;;;15.97;100.00;100119.47;4990415;28;20251;-63
2023/07/13 04:30:19;;;;;;;8.90;2.03;;;;;;;16.10;100.00;100121.97;4982386;28;20184;-63
2023/07/13 04:32:44;;;;;;;3.80;1.60;;;;;;;16.16;100.00;100119.84;4991706;28;20179;-62
2023/07/13 04:35:09;;;;;;;4.53;2.10;;;;;;;16.27;100.00;100127.59;4992166;28;20202;-62
2023/07/13 04:37:35;;;;;;;7.03;1.70;;;;;;;16.24;100.00;100120.06;4992107;28;20274;-63
2023/07/13 04:40:01;;;;;;;4.13;1.33;;;;;;;16.52;100.00;100125.69;4992343;28;20187;-61
2023/07/13 04:42:26;;;;;;;3.07;1.50;;;;;;;16.62;100.00;100118.78;4980560;28;20233;-62
2023/07/13 04:44:52;;;;;;;3.73;1.40;;;;;;;16.72;100.00;100111.94;4990142;28;20191;-59
2023/07/13 04:47:18;;;;;;;6.30;1.50;;;;;;;16.92;100.00;100110.34;4994091;28;20183;-59
2023/07/13 04:49:44;;;;;;;1.30;1.07;;;;;;;17.08;100.00;100120.31;4996020;28;20179;-59
2023/07/13 04:52:10;;;;;;;2.83;1.40;;;;;;;17.28;100.00;100112.66;5000978;28;20229;-58
2023/07/13 04:54:37;;;;;;;3.03;1.77;;;;;;;17.33;100.00;100115.72;5007760;28;20199;-59
2023/07/13 04:57:04;;;;;;;5.13;1.80;;;;;;;17.52;100.00;100122.78;5002237;28;20262;-60
2023/07/13 04:59:29;;;;;;;2.23;1.30;;;;;;;17.61;100.00;100120.38;5015051;28;20186;-60
2023/07/13 05:01:54;;;;;;;2.40;1.50;;;;;;;17.75;100.00;100125.25;5012842;28;20230;-59
2023/07/13 05:04:20;;;;;;;3.33;1.10;;;;;;;17.75;100.00;100125.25;5008341;28;20777;-60
2023/07/13 05:06:45;;;;;;;4.60;1.67;;;;;;;17.83;100.00;100124.59;5008080;28;20187;-60
2023/07/13 05:09:12;;;;;;;2.57;1.47;;;;;;;17.92;98.50;100123.81;4995806;28;20187;-60
2023/07/13 05:11:37;;;;;;;5.30;1.40;;;;;;;18.16;98.51;100118.31;5010665;28;20555;-60
2023/07/13 05:14:02;;;;;;;4.07;1.63;;;;;;;18.21;95.91;100123.13;4998124;28;20217;-61
2023/07/13 05:16:28;;;;;;;4.33;1.50;;;;;;;18.41;95.29;100126.59;5000670;28;20212;-60
2023/07/13 05:18:54;;;;;;;5.07;1.20;;;;;;;18.46;92.70;100126.22;5015013;28;20190;-59
2023/07/13 05:21:19;;;;;;;2.23;1.30;;;;;;;18.39;92.19;100134.56;5014272;28;20582;-59
2023/07/13 05:23:45;;;;;;;4.70;1.40;;;;;;;18.56;91.98;100134.84;5020144;28;20186;-60
2023/07/13 05:26:10;;;;;;;2.83;1.40;;;;;;;18.78;91.19;100133.78;5013091;28;20174;-60
2023/07/13 05:28:36;;;;;;;3.57;1.57;;;;;;;18.86;89.77;100146.13;5014162;28;20281;-59
2023/07/13 05:31:02;;;;;;;5.03;1.53;;;;;;;19.10;89.36;100144.91;5011382;28;20562;-59
2023/07/13 05:33:27;;;;;;;3.37;1.20;;;;;;;19.10;88.91;100150.13;5022205;28;20186;-60
2023/07/13 05:35:53;;;;;;;3.90;1.27;;;;;;;18.90;89.10;100150.09;5013175;28;20276;-60
2023/07/13 05:38:18;;;;;;;4.57;1.47;;;;;;;19.11;88.46;100144.78;5012682;28;20704;-60
2023/07/13 05:40:45;;;;;;;5.73;1.50;;;;;;;19.27;87.70;100138.19;5008253;28;20221;-60
2023/07/13 05:43:10;;;;;;;2.80;1.23;;;;;;;19.43;86.45;100143.66;5012799;28;20191;-60
2023/07/13 05:45:36;;;;;;;4.33;1.60;;;;;;;19.52;85.76;100134.16;5012838;28;20273;-60
2023/07/13 05:48:01;;;;;;;5.57;1.17;;;;;;;19.68;85.83;100138.78;5013825;28;20210;-61
2023/07/13 05:50:26;;;;;;;5.67;1.47;;;;;;;19.71;85.75;100141.13;5004898;28;20689;-60
2023/07/13 05:52:52;;;;;;;3.60;1.43;;;;;;;19.64;84.89;100140.84;5025392;28;20541;-60
2023/07/13 05:55:18;;;;;;;5.40;1.70;;;;;;;19.75;83.27;100142.47;5011760;28;20308;-61
2023/07/13 05:57:43;;;;;;;2.33;1.33;;;;;;;20.13;81.86;100145.09;5012405;28;20238;-60
2023/07/13 06:00:09;;;;;;;3.27;1.43;;;;;;;20.43;77.94;100143.97;5002038;28;20175;-60
2023/07/13 06:02:35;;;;;;;3.87;1.37;;;;;;;20.47;77.35;100145.31;5016562;28;20188;-60
2023/07/13 06:05:00;;;;;;;1.53;1.03;;;;;;;20.46;75.91;100154.13;4994076;28;20182;-61
2023/07/13 06:07:26;;;;;;;1.87;1.30;;;;;;;20.68;75.95;100148.63;4994822;28;20545;-60
2023/07/13 06:09:51;;;;;;;2.20;1.30;;;;;;;20.77;74.09;100153.81;4994905;28;20262;-60
2023/07/13 06:12:16;;;;;;;4.20;1.30;;;;;;;20.74;75.00;100156.75;4999330;28;20226;-60
2023/07/13 06:14:41;;;;;;;4.73;1.03;;;;;;;20.82;74.29;100158.59;4993931;28;20253;-61
2023/07/13 06:17:07;;;;;;;4.60;1.37;;;;;;;21.15;70.57;100156.28;4994578;28;20627;-58
2023/07/13 06:19:33;;;;;;;2.57;1.00;;;;;;;21.52;69.18;100160.47;4994510;28;20187;-59
2023/07/13 06:21:59;;;;;;;2.60;1.07;;;;;;;21.90;64.92;100163.66;4999764;28;20300;-59
2023/07/13 06:24:24;;;;;;;2.83;1.40;;;;;;;22.06;63.89;100164.72;4995846;28;20627;-59
2023/07/13 06:26:50;;;;;;;5.37;1.17;;;;;;;22.07;63.52;100166.38;4995078;28;20179;-59
2023/07/13 06:29:15;;;;;;;1.40;1.10;;;;;;;22.51;60.06;100168.00;4995868;28;20179;-60
2023/07/13 06:31:40;;;;;;;1.20;0.80;;;;;;;23.47;53.18;100173.69;4996539;28;20728;-58
2023/07/13 06:34:06;;;;;;;5.17;1.30;;;;;;;24.23;49.05;100176.75;4990840;28;20271;-59
2023/07/13 06:36:31;;;;;;;3.93;1.30;;;;;;;24.67;46.77;100170.13;4993934;28;20562;-59
2023/07/13 06:38:56;;;;;;;3.40;1.27;;;;;;;24.91;45.77;100173.59;4993045;28;20213;-60
2023/07/13 06:41:22;;;;;;;2.35;1.00;;;;;;;25.61;44.79;100185.69;4981881;28;20687;-59
2023/07/13 06:43:47;;;;;;;4.00;1.05;;;;;;;26.17;42.64;100187.06;5000319;28;20174;-59
2023/07/13 06:46:13;;;;;;;2.72;1.10;;;;;;;26.98;40.44;100187.91;5000666;28;20179;-59
2023/07/13 06:48:38;;;;;;;2.35;0.80;;;;;;;27.75;38.20;100191.56;4996507;28;20526;-56
2023/07/13 06:51:03;;;;;;;1.73;0.93;;;;;;;28.50;37.32;100193.53;4993230;28;20237;-60
2023/07/13 06:53:29;;;;;;;2.67;1.08;;;;;;;28.52;35.88;100194.16;5001992;28;20175;-60
2023/07/13 06:55:54;;;;;;;2.83;1.02;;;;;;;28.50;36.12;100189.06;4994210;28;20207;-60
2023/07/13 06:58:20;;;;;;;6.40;1.00;;;;;;;29.27;36.16;100199.34;4994512;28;20191;-60
2023/07/13 07:00:46;;;;;;;3.35;1.02;;;;;;;29.78;34.45;100199.69;4974279;28;20227;-60
2023/07/13 07:03:11;;;;;;;2.83;1.27;;;;;;;29.76;34.69;100205.19;4981508;28;20182;-59
2023/07/13 07:05:37;;;;;;;2.05;1.08;;;;;;;29.33;33.70;100210.16;4993021;28;20269;-60
2023/07/13 07:08:02;;;;;;;2.95;1.27;;;;;;;30.03;33.13;100205.16;4992468;28;20210;-59
2023/07/13 07:10:30;;;;;;;7.70;1.08;;;;;;;30.01;33.47;100204.53;4985794;28;20227;-59
2023/07/13 07:12:55;;;;;;;3.05;1.00;;;;;;;30.60;32.11;100201.81;5007530;28;20265;-59
2023/07/13 07:15:20;;;;;;;3.25;1.30;;;;;;;30.09;32.93;100206.97;4999878;28;20207;-60
2023/07/13 07:17:46;;;;;;;5.88;1.25;;;;;;;30.07;32.92;100209.00;5017892;28;20186;-60
2023/07/13 07:20:11;;;;;;;3.00;1.52;;;;;;;29.27;33.43;100215.25;4999004;28;20542;-61
2023/07/13 07:22:37;;;;;;;2.45;1.23;;;;;;;30.39;31.79;100213.56;5018204;28;20237;-59
2023/07/13 07:25:02;;;;;;;4.38;1.23;;;;;;;31.17;30.17;100214.31;5007700;28;20193;-60
2023/07/13 07:27:28;;;;;;;1.70;0.80;;;;;;;31.41;30.02;100211.88;5004905;28;20246;-59
2023/07/13 07:29:53;;;;;;;5.78;1.23;;;;;;;30.00;31.70;100223.31;5007209;28;20238;-59
2023/07/13 07:32:19;;;;;;;6.18;1.15;;;;;;;30.09;32.73;100212.28;4961314;28;20235;-60
2023/07/13 07:34:45;;;;;;;5.45;1.73;;;;;;;30.68;32.15;100212.19;4992589;28;20301;-60
2023/07/13 07:37:12;;;;;;;4.00;1.20;;;;;;;30.93;30.27;100211.41;4992465;28;20607;-59
2023/07/13 07:39:37;;;;;;;7.40;1.27;;;;;;;31.53;30.26;100223.41;4992667;28;20290;-59
2023/07/13 07:42:03;;;;;;;2.13;0.80;;;;;;;31.32;30.07;100227.28;5007416;28;20317;-60
2023/07/13 07:44:30;;;;;;;4.25;1.25;;;;;;;32.02;28.64;100232.31;5002827;28;20269;-60
2023/07/13 07:46:56;;;;;;;3.42;0.98;;;;;;;31.18;29.50;100222.06;5001615;28;20219;-60
2023/07/13 07:49:21;;;;;;;2.72;1.30;;;;;;;30.95;30.29;100216.50;5001322;28;20590;-60
2023/07/13 07:51:46;;;;;;;3.28;1.00;;;;;;;30.94;30.59;100213.06;4992033;28;20230;-60
2023/07/13 07:54:12;;;;;;;2.08;1.00;;;;;;;30.95;30.66;100225.31;5003789;28;20606;-61
2023/07/13 07:56:37;;;;;;;2.60;1.20;;;;;;;31.04;30.64;100216.03;5000905;28;20179;-61
2023/07/13 07:59:02;;;;;;;4.22;1.30;;;;;;;31.48;30.18;100229.41;5012189;28;20535;-60
2023/07/13 08:01:28;;;;;;;2.45;1.10;;;;;;;31.10;29.69;100221.53;4991366;28;20227;-61
2023/07/13 08:03:53;;;;;;;3.25;1.13;;;;;;;31.67;29.43;100226.78;4996837;28;20303;-60
2023/07/13 08:06:21;;;;;;;2.75;1.02;;;;;;;31.56;29.19;100236.25;4991670;28;20635;-60
2023/07/13 08:08:47;;;;;;;2.22;0.88;;;;;;;31.43;28.76;100225.75;4992345;28;20269;-60
2023/07/13 08:11:12;;;;;;;1.65;1.10;;;;;;;31.58;28.44;100223.56;4991235;28;21004;-60
2023/07/13 08:13:37;;;;;;;3.42;0.90;;;;;;;31.12;29.42;100230.09;5007712;28;20549;-60
2023/07/13 08:16:06;;;;;;;1.75;1.05;;;;;;;31.47;29.25;100235.72;5010628;28;20269;-61
2023/07/13 08:18:32;;;;;;;4.03;1.08;;;;;;;31.10;29.26;100226.84;5002306;28;20183;-60
2023/07/13 08:20:58;;;;;;;4.57;0.98;;;;;;;31.13;28.11;100231.75;4988453;28;20317;-60
2023/07/13 08:23:24;;;;;;;1.50;1.00;;;;;;;31.74;27.80;100232.03;5000294;28;20615;-60
2023/07/13 08:25:53;;;;;;;4.88;1.70;;;;;;;31.28;27.98;100226.91;4991955;28;20179;-60
2023/07/13 08:28:23;;;;;;;4.50;1.42;;;;;;;30.51;28.41;100227.81;4992092;28;20239;-60
2023/07/13 08:30:49;;;;;;;2.55;0.93;;;;;;;31.91;27.22;100234.91;4987609;28;20222;-60
2023/07/13 08:33:19;;;;;;;1.27;1.00;;;;;;;32.40;27.44;100229.63;5012359;28;20189;-60
2023/07/13 08:35:48;;;;;;;2.60;0.90;;;;;;;33.21;26.39;100231.94;4998475;28;20284;-59
2023/07/13 08:38:14;;;;;;;4.13;1.08;;;;;;;34.25;24.73;100230.44;5008342;28;20701;-60
2023/07/13 08:40:41;;;;;;;3.00;0.90;;;;;;;33.20;24.87;100225.78;5004958;28;20237;-61
2023/07/13 08:43:15;;;;;;;1.38;0.90;;;;;;;32.58;25.94;100224.25;5010695;28;20258;-60
2023/07/13 08:45:46;;;;;;;3.60;0.98;;;;;;;32.06;26.32;100230.03;5011282;28;20260;-60
2023/07/13 08:48:28;;;;;;;2.95;1.10;;;;;;;32.71;26.27;100233.91;5009223;28;20314;-62
2023/07/13 08:51:20;;;;;;;5.55;1.52;;;;;;;32.34;25.87;100234.03;5006730;28;20229;-61
2023/07/13 08:53:48;;;;;;;2.38;1.00;;;;;;;34.39;24.39;100228.34;5010681;28;20634;-60
2023/07/13 08:56:19;;;;;;;2.33;0.90;;;;;;;34.11;23.97;100233.41;4994083;28;20199;-61
2023/07/13 08:58:51;;;;;;;1.27;0.95;;;;;;;33.28;24.81;100232.63;4998118;28;20627;-62
2023/07/13 09:01:31;;;;;;;1.67;0.85;;;;;;;31.58;26.66;100234.22;5005005;28;20236;-61
2023/07/13 09:04:02;;;;;;;2.75;1.17;;;;;;;31.52;27.17;100225.25;5014791;28;20179;-62
2023/07/13 09:06:35;;;;;;;2.58;0.80;;;;;;;32.14;25.84;100232.38;5009095;28;20187;-61
2023/07/13 09:09:14;;;;;;;3.75;0.98;;;;;;;33.67;24.88;100227.66;4999457;28;20192;-62
2023/07/13 09:11:49;;;;;;;0.88;0.60;;;;;;;34.06;24.11;100227.13;5012687;28;20226;-61
2023/07/13 09:14:31;;;;;;;4.95;1.00;;;;;;;33.51;24.12;100220.38;5012130;28;20212;-61
2023/07/13 09:16:57;;;;;;;3.85;0.90;;;;;;;32.11;25.14;100230.16;4999307;28;20213;-59
2023/07/13 09:19:30;;;;;;;2.10;0.73;;;;;;;33.57;24.01;100217.59;4995633;28;20191;-60
2023/07/13 09:21:56;;;;;;;2.60;1.00;;;;;;;34.31;23.37;100234.84;4996115;28;20230;-60
2023/07/13 09:24:49;;;;;;;1.08;0.90;;;;;;;33.93;23.46;100222.88;4991821;28;20179;-61
2023/07/13 09:27:21;;;;;;;2.78;0.88;;;;;;;34.49;23.28;100217.03;4982670;28;20219;-61
2023/07/13 09:30:22;;;;;;;3.90;1.05;;;;;;;34.37;23.03;100223.25;4991651;28;20574;-61
2023/07/13 09:32:51;;;;;;;2.55;0.75;;;;;;;32.59;24.60;100225.09;4967685;28;20224;-61
2023/07/13 09:35:24;;;;;;;6.28;1.25;;;;;;;32.65;25.49;100214.31;4977734;28;20211;-61
2023/07/13 09:37:50;;;;;;;2.17;1.00;;;;;;;32.65;25.27;100216.19;4979928;28;20207;-60
2023/07/13 09:40:44;;;;;;;3.60;1.00;;;;;;;32.11;25.75;100226.69;4970996;28;20215;-61
2023/07/13 09:43:15;;;;;;;1.52;1.00;;;;;;;32.21;25.57;100211.03;5004138;28;20175;-60
2023/07/13 09:45:40;;;;;;;1.58;1.00;;;;;;;32.74;25.56;100214.81;4994435;28;20187;-61
2023/07/13 09:48:10;;;;;;;2.78;1.00;;;;;;;33.96;24.32;100217.06;4994917;28;20206;-60
2023/07/13 09:50:35;;;;;;;3.08;1.05;;;;;;;34.01;24.99;100209.16;4990197;28;20232;-59
2023/07/13 09:53:02;;;;;;;2.38;1.08;;;;;;;34.03;24.00;100216.94;5005719;28;20277;-58
2023/07/13 09:55:30;;;;;;;2.10;0.88;;;;;;;33.44;24.73;100212.50;5003867;28;20612;-59
2023/07/13 09:57:55;;;;;;;3.22;1.30;;;;;;;33.65;24.74;100210.28;4986242;28;20249;-59
2023/07/13 10:00:25;;;;;;;3.83;0.82;;;;;;;34.41;24.37;100207.53;4982579;28;20208;-66
2023/07/13 10:03:03;;;;;;;1.25;0.85;;;;;;;34.69;23.79;100221.91;5007225;28;20595;-63
2023/07/13 10:05:37;;;;;;;1.95;0.80;;;;;;;34.75;22.92;100227.09;4992931;28;20184;-62
2023/07/13 10:08:03;;;;;;;3.85;0.90;;;;;;;34.04;24.47;100213.25;5009253;28;20186;-60
2023/07/13 10:10:28;;;;;;;2.08;0.80;;;;;;;33.04;24.43;100213.97;4984568;28;20230;-57
2023/07/13 10:12:54;;;;;;;2.20;0.90;;;;;;;32.80;24.96;100207.81;5006016;28;20182;-58
2023/07/13 10:15:23;;;;;;;3.80;1.00;;;;;;;32.07;25.90;100221.00;4996275;28;20277;-57
2023/07/13 10:17:50;;;;;;;2.53;0.80;;;;;;;32.57;25.34;100203.19;5006934;28;20183;-63
2023/07/13 10:20:16;;;;;;;4.20;1.08;;;;;;;33.56;25.13;100209.81;4986779;28;20191;-62
2023/07/13 10:22:54;;;;;;;1.30;0.90;;;;;;;34.17;24.40;100214.81;4991265;28;20239;-63
2023/07/13 10:25:23;;;;;;;1.50;0.80;;;;;;;34.95;22.70;100206.31;4994850;28;20219;-63
2023/07/13 10:27:52;;;;;;;3.65;1.10;;;;;;;32.03;25.37;100217.19;5003403;28;20298;-63
2023/07/13 10:30:25;;;;;;;1.40;0.85;;;;;;;31.42;26.47;100198.38;4987028;28;20935;-62
2023/07/13 10:32:52;;;;;;;1.92;0.93;;;;;;;30.24;27.69;100192.59;4993625;28;20186;-64
2023/07/13 10:35:21;;;;;;;3.65;1.20;;;;;;;31.43;26.98;100201.84;4978337;28;20223;-64
2023/07/13 10:37:52;;;;;;;3.67;1.30;;;;;;;30.03;28.19;100196.38;5003940;28;20211;-64
2023/07/13 10:40:27;;;;;;;1.17;0.80;;;;;;;29.45;28.91;100200.59;4992010;28;20183;-61
2023/07/13 10:42:56;;;;;;;3.17;0.93;;;;;;;28.47;30.31;100204.53;5000250;28;20190;-63
2023/07/13 10:45:23;;;;;;;5.28;1.38;;;;;;;28.23;30.99;100206.69;4986445;28;20195;-59
2023/07/13 10:47:53;;;;;;;3.65;1.35;;;;;;;27.97;31.10;100199.41;4992078;28;20217;-60
2023/07/13 10:50:22;;;;;;;2.45;1.00;;;;;;;27.97;31.93;100205.50;4984424;28;20214;-60
2023/07/13 10:52:57;;;;;;;4.68;1.35;;;;;;;27.59;31.42;100207.75;5004024;28;20187;-58
2023/07/13 10:55:42;;;;;;;8.38;1.80;;;;;;;27.03;32.10;100204.84;4999610;28;20199;-60
2023/07/13 10:58:18;;;;;;;4.38;1.38;;;;;;;26.81;33.05;100206.66;4990291;28;20191;-60
2023/07/13 11:00:50;;;;;;;3.08;1.10;;;;;;;27.04;33.23;100208.28;4969131;28;20302;-58
2023/07/13 11:03:18;;;;;;;5.68;1.20;;;;;;;26.90;33.48;100207.34;4985539;28;20245;-57
2023/07/13 11:05:47;;;;;;;1.52;1.13;;;;;;;26.92;33.66;100200.06;4992761;28;20191;-58
2023/07/13 11:08:20;;;;;;;1.95;0.98;;;;;;;26.74;32.68;100200.47;4993295;28;20609;-59
2023/07/13 11:10:54;;;;;;;1.73;1.20;;;;;;;26.44;32.95;100205.81;4989244;28;20257;-58
2023/07/13 11:14:04;;;;;;;2.30;1.30;;;;;;;26.81;32.77;100201.38;4999790;28;20216;-59
2023/07/13 11:16:45;;;;;;;1.65;0.98;;;;;;;27.05;32.38;100202.81;4941686;28;20226;-58
2023/07/13 11:19:16;;;;;;;3.72;1.35;;;;;;;27.13;32.19;100204.50;4953049;28;20197;-57
2023/07/13 11:22:07;;;;;;;4.15;1.73;;;;;;;27.24;32.37;100197.91;4943387;28;20327;-58
2023/07/13 11:24:59;;;;;;;2.53;1.10;;;;;;;27.04;32.36;100179.25;4958860;28;20707;-60